createdAt,value
2017-11-09T00:00:48.282Z,28.10
2017-11-09T00:03:15.735Z,30.95
2017-11-09T00:05:48.793Z,29.90
2017-11-09T00:08:16.300Z,32.20
2017-11-09T00:10:43.743Z,31.00
2017-11-09T00:13:11.174Z,27.23
2017-11-09T00:15:38.619Z,33.70
2017-11-09T00:18:06.050Z,45.25
2017-11-09T00:20:33.473Z,34.92
2017-11-09T00:23:00.913Z,29.17
2017-11-09T00:25:28.343Z,34.65
2017-11-09T00:27:55.790Z,41.35
2017-11-09T00:30:23.226Z,29.08
2017-11-09T00:32:51.088Z,33.03
2017-11-09T00:35:18.525Z,38.85
2017-11-09T00:37:45.957Z,31.83
2017-11-09T00:40:13.408Z,34.22
2017-11-09T00:42:40.849Z,33.00
2017-11-09T00:45:08.376Z,30.83
2017-11-09T00:47:35.822Z,28.70
2017-11-09T00:50:03.274Z,34.65
2017-11-09T00:52:30.707Z,36.65
2017-11-09T00:54:58.153Z,33.20
2017-11-09T00:57:25.589Z,36.83
2017-11-09T00:59:53.040Z,40.63
2017-11-09T01:02:20.471Z,30.92
2017-11-09T01:04:47.906Z,35.05
2017-11-09T01:07:15.346Z,32.65
2017-11-09T01:09:42.793Z,35.08
2017-11-09T01:12:10.221Z,36.22
2017-11-09T01:14:37.649Z,35.42
2017-11-09T01:17:05.106Z,29.70
2017-11-09T01:19:33.996Z,33.38
2017-11-09T01:22:01.553Z,34.33
2017-11-09T01:24:29.005Z,35.03
2017-11-09T01:26:56.424Z,32.23
2017-11-09T01:29:23.884Z,35.00
2017-11-09T01:31:51.330Z,35.53
2017-11-09T01:34:18.767Z,38.17
2017-11-09T01:36:46.227Z,43.60
2017-11-09T01:39:13.656Z,44.70
2017-11-09T01:41:41.091Z,43.90
2017-11-09T01:44:08.536Z,38.13
2017-11-09T01:46:35.962Z,41.05
2017-11-09T01:49:03.408Z,42.65
2017-11-09T01:51:30.852Z,43.85
2017-11-09T01:53:58.292Z,44.20
2017-11-09T01:56:25.722Z,44.17
2017-11-09T01:58:53.165Z,46.80
2017-11-09T02:01:20.598Z,51.00
2017-11-09T02:03:48.026Z,51.65
2017-11-09T02:06:15.476Z,52.90
2017-11-09T02:08:42.901Z,55.60
2017-11-09T02:11:10.341Z,52.53
2017-11-09T02:13:37.785Z,56.13
2017-11-09T02:16:05.216Z,55.28
2017-11-09T02:18:32.654Z,51.37
2017-11-09T02:21:00.089Z,54.43
2017-11-09T02:23:27.524Z,55.67
2017-11-09T02:25:54.954Z,56.63
2017-11-09T02:28:22.404Z,52.78
2017-11-09T02:30:49.821Z,55.83
2017-11-09T02:33:17.273Z,60.42
2017-11-09T02:35:44.718Z,56.40
2017-11-09T02:38:12.146Z,51.67
2017-11-09T02:40:39.598Z,51.65
2017-11-09T02:43:07.038Z,53.08
2017-11-09T02:45:34.458Z,47.40
2017-11-09T02:48:01.918Z,46.22
2017-11-09T02:50:29.355Z,46.03
2017-11-09T02:52:56.774Z,47.07
2017-11-09T02:55:24.221Z,45.88
2017-11-09T02:57:51.617Z,43.65
2017-11-09T03:00:19.095Z,47.57
2017-11-09T03:02:46.545Z,48.95
2017-11-09T03:05:13.967Z,42.40
2017-11-09T03:07:41.393Z,48.00
2017-11-09T03:10:08.838Z,48.25
2017-11-09T03:12:36.267Z,44.92
2017-11-09T03:15:03.698Z,43.87
2017-11-09T03:17:31.146Z,51.30
2017-11-09T03:19:58.579Z,46.80
2017-11-09T03:22:26.008Z,45.25
2017-11-09T03:24:53.457Z,49.85
2017-11-09T03:27:20.873Z,51.00
2017-11-09T03:29:48.296Z,54.63
2017-11-09T03:32:15.738Z,59.40
2017-11-09T03:34:43.175Z,64.93
2017-11-09T03:37:10.609Z,50.67
2017-11-09T03:39:38.053Z,49.13
2017-11-09T03:42:05.504Z,54.88
2017-11-09T03:44:32.926Z,51.30
2017-11-09T03:47:00.367Z,54.65
2017-11-09T03:49:27.810Z,58.05
2017-11-09T03:51:55.241Z,55.53
2017-11-09T03:54:22.682Z,55.43
2017-11-09T03:56:50.110Z,51.72
2017-11-09T03:59:17.538Z,55.50
2017-11-09T04:01:44.980Z,56.80
2017-11-09T04:04:12.410Z,67.90
2017-11-09T04:06:39.851Z,64.37
2017-11-09T04:09:07.293Z,60.30
2017-11-09T04:11:34.729Z,57.20
2017-11-09T04:14:02.159Z,61.83
2017-11-09T04:16:29.602Z,64.62
2017-11-09T04:18:57.043Z,59.53
2017-11-09T04:21:24.475Z,62.25
2017-11-09T04:23:51.934Z,69.75
2017-11-09T04:26:19.373Z,65.85
2017-11-09T04:28:46.807Z,67.40
2017-11-09T04:31:14.270Z,56.37
2017-11-09T04:33:41.702Z,59.70
2017-11-09T04:36:09.145Z,65.70
2017-11-09T04:38:36.588Z,69.35
2017-11-09T04:41:04.025Z,72.55
2017-11-09T04:43:31.459Z,84.10
2017-11-09T04:45:58.934Z,69.65
2017-11-09T04:48:26.358Z,73.90
2017-11-09T04:50:53.785Z,66.65
2017-11-09T04:53:21.301Z,66.87
2017-11-09T04:55:48.739Z,60.45
2017-11-09T04:58:16.256Z,68.03
2017-11-09T05:00:45.406Z,69.97
2017-11-09T05:03:12.841Z,69.20
2017-11-09T05:05:41.215Z,67.75
2017-11-09T05:08:09.491Z,65.05
2017-11-09T05:10:36.930Z,69.55
2017-11-09T05:13:04.373Z,87.12
2017-11-09T05:15:34.897Z,78.40
2017-11-09T05:18:02.335Z,80.85
2017-11-09T05:20:29.780Z,74.03
2017-11-09T05:22:57.208Z,82.68
2017-11-09T05:25:24.643Z,85.12
2017-11-09T05:27:52.086Z,76.20
2017-11-09T05:30:19.792Z,84.53
2017-11-09T05:32:47.226Z,73.05
2017-11-09T05:35:14.676Z,77.37
2017-11-09T05:37:42.110Z,67.75
2017-11-09T05:40:09.546Z,77.18
2017-11-09T05:42:38.127Z,78.12
2017-11-09T05:45:06.443Z,68.80
2017-11-09T05:47:45.347Z,78.45
2017-11-09T05:50:16.405Z,76.45
2017-11-09T05:52:44.804Z,80.15
2017-11-09T05:55:13.078Z,71.68
2017-11-09T05:57:46.558Z,68.62
2017-11-09T06:00:13.998Z,88.62
2017-11-09T06:02:41.429Z,73.25
2017-11-09T06:05:08.878Z,76.18
2017-11-09T06:07:36.307Z,66.30
2017-11-09T06:10:03.744Z,70.78
2017-11-09T06:12:31.189Z,65.35
2017-11-09T06:14:58.621Z,77.85
2017-11-09T06:17:26.051Z,67.60
2017-11-09T06:19:53.501Z,67.57
2017-11-09T06:22:20.941Z,75.43
2017-11-09T06:24:48.374Z,70.90
2017-11-09T06:27:15.823Z,75.90
2017-11-09T06:29:43.253Z,78.75
2017-11-09T06:32:10.710Z,74.70
2017-11-09T06:34:38.157Z,64.82
2017-11-09T06:37:11.164Z,74.65
2017-11-09T06:39:40.565Z,87.03
2017-11-09T06:42:08.027Z,73.45
2017-11-09T06:44:36.632Z,67.68
2017-11-09T06:47:04.061Z,78.43
2017-11-09T06:49:31.514Z,73.20
2017-11-09T06:51:58.945Z,66.15
2017-11-09T06:54:26.377Z,74.80
2017-11-09T06:56:53.829Z,71.75
2017-11-09T06:59:21.261Z,66.82
2017-11-09T07:01:48.697Z,68.90
2017-11-09T07:04:16.150Z,71.53
2017-11-09T07:06:43.586Z,64.60
2017-11-09T07:09:11.026Z,71.12
2017-11-09T07:11:38.465Z,75.80
2017-11-09T07:14:05.891Z,72.70
2017-11-09T07:16:33.329Z,72.72
2017-11-09T07:19:00.782Z,74.62
2017-11-09T07:21:28.209Z,81.65
2017-11-09T07:23:55.685Z,77.07
2017-11-09T07:26:23.130Z,92.70
2017-11-09T07:28:50.563Z,91.07
2017-11-09T07:31:17.990Z,83.53
2017-11-09T07:33:45.437Z,91.22
2017-11-09T07:36:12.869Z,95.00
2017-11-09T07:38:40.305Z,83.78
2017-11-09T07:41:07.763Z,80.05
2017-11-09T07:43:35.297Z,89.22
2017-11-09T07:46:02.760Z,79.50
2017-11-09T07:48:30.200Z,80.00
2017-11-09T07:50:57.645Z,77.68
2017-11-09T07:53:25.090Z,90.28
2017-11-09T07:55:53.388Z,87.90
2017-11-09T07:58:20.830Z,78.30
2017-11-09T08:00:48.279Z,71.00
2017-11-09T08:03:15.722Z,78.05
2017-11-09T08:05:43.861Z,70.07
2017-11-09T08:08:11.639Z,58.22
2017-11-09T08:13:26.091Z,63.20
2017-11-09T08:15:54.035Z,60.15
2017-11-09T08:18:26.029Z,64.05
2017-11-09T08:20:53.527Z,52.97
2017-11-09T08:23:20.962Z,58.22
2017-11-09T08:25:48.834Z,61.05
2017-11-09T08:28:18.754Z,54.08
2017-11-09T08:30:48.278Z,51.20
2017-11-09T08:33:19.649Z,47.35
2017-11-09T08:35:47.114Z,55.03
2017-11-09T08:38:24.149Z,56.65
2017-11-09T08:40:51.578Z,63.58
2017-11-09T08:43:19.007Z,52.92
2017-11-09T08:45:46.459Z,46.33
2017-11-09T08:48:13.894Z,56.78
2017-11-09T08:50:41.330Z,52.55
2017-11-09T08:53:08.787Z,56.53
2017-11-09T08:55:36.219Z,58.20
2017-11-09T08:58:03.643Z,61.77
2017-11-09T09:00:31.134Z,59.23
2017-11-09T09:02:58.564Z,60.13
2017-11-09T09:05:26.016Z,53.10
2017-11-09T09:07:53.498Z,55.55
2017-11-09T09:10:20.929Z,55.28
2017-11-09T09:12:51.121Z,57.78
2017-11-09T09:15:19.007Z,54.25
2017-11-09T09:17:46.484Z,57.57
2017-11-09T09:20:13.913Z,47.33
2017-11-09T09:22:44.344Z,52.50
2017-11-09T09:25:14.535Z,55.97
2017-11-09T09:27:42.387Z,58.35
2017-11-09T09:30:16.245Z,49.22
2017-11-09T09:32:44.950Z,50.80
2017-11-09T09:35:14.766Z,52.30
2017-11-09T09:37:53.130Z,53.72
2017-11-09T09:40:21.061Z,54.60
2017-11-09T09:42:48.498Z,53.55
2017-11-09T09:45:15.963Z,46.35
2017-11-09T09:47:43.401Z,56.13
2017-11-09T09:50:10.834Z,46.45
2017-11-09T09:52:38.298Z,48.35
2017-11-09T09:55:05.731Z,50.40
2017-11-09T09:57:33.183Z,52.25
2017-11-09T10:00:00.633Z,62.08
2017-11-09T10:02:28.066Z,63.03
2017-11-09T10:04:55.501Z,54.30
2017-11-09T10:07:22.942Z,48.30
2017-11-09T10:09:50.398Z,49.58
2017-11-09T10:12:17.837Z,47.30
2017-11-09T10:14:45.269Z,61.50
2017-11-09T10:17:12.697Z,56.73
2017-11-09T10:19:40.138Z,48.60
2017-11-09T10:22:07.571Z,53.70
2017-11-09T10:24:35.021Z,48.65
2017-11-09T10:27:02.469Z,51.92
2017-11-09T10:29:29.918Z,51.10
2017-11-09T10:31:57.370Z,46.08
2017-11-09T10:34:24.796Z,46.90
2017-11-09T10:36:52.234Z,40.42
2017-11-09T10:39:19.679Z,52.37
2017-11-09T10:41:47.108Z,48.95
2017-11-09T10:44:14.542Z,38.47
2017-11-09T10:46:41.994Z,45.90
2017-11-09T10:49:09.435Z,41.53
2017-11-09T10:51:36.882Z,47.30
2017-11-09T10:54:04.318Z,39.55
2017-11-09T10:56:31.759Z,45.53
2017-11-09T10:58:59.206Z,49.60
2017-11-09T11:01:26.635Z,35.70
2017-11-09T11:03:54.058Z,38.43
2017-11-09T11:06:21.505Z,44.42
2017-11-09T11:08:48.933Z,48.70
2017-11-09T11:11:16.372Z,37.87
2017-11-09T11:13:43.795Z,39.40
2017-11-09T11:16:11.230Z,34.63
2017-11-09T11:18:38.669Z,37.47
2017-11-09T11:21:06.105Z,44.50
2017-11-09T11:23:33.549Z,40.33
2017-11-09T11:26:00.986Z,37.27
2017-11-09T11:28:28.482Z,36.77
2017-11-09T11:30:55.935Z,38.53
2017-11-09T11:33:23.357Z,43.73
2017-11-09T11:35:50.793Z,42.50
2017-11-09T11:38:18.235Z,39.97
2017-11-09T11:40:45.670Z,44.50
2017-11-09T11:43:19.988Z,39.30
2017-11-09T11:45:47.425Z,42.23
2017-11-09T11:48:14.875Z,33.57
2017-11-09T11:50:42.329Z,41.80
2017-11-09T11:53:09.763Z,36.83
2017-11-09T11:55:37.215Z,38.17
2017-11-09T11:58:04.675Z,35.77
2017-11-09T12:00:32.139Z,40.17
2017-11-09T12:02:59.553Z,29.60
2017-11-09T12:05:26.995Z,37.63
2017-11-09T12:07:54.426Z,36.17
2017-11-09T12:10:22.782Z,32.93
2017-11-09T12:12:50.228Z,31.33
2017-11-09T12:15:17.649Z,46.10
2017-11-09T12:17:45.073Z,43.13
2017-11-09T12:20:12.514Z,30.07
2017-11-09T12:22:39.942Z,27.20
2017-11-09T12:25:07.366Z,29.70
2017-11-09T12:27:34.814Z,28.53
2017-11-09T12:30:02.252Z,27.03
2017-11-09T12:32:29.680Z,27.80
2017-11-09T12:34:57.132Z,30.70
2017-11-09T12:37:24.554Z,32.70
2017-11-09T12:39:51.978Z,29.70
2017-11-09T12:42:19.425Z,36.70
2017-11-09T12:44:46.845Z,28.50
2017-11-09T12:47:14.261Z,27.73
2017-11-09T12:49:41.702Z,36.83
2017-11-09T12:52:09.122Z,29.00
2017-11-09T12:54:36.544Z,37.63
2017-11-09T12:57:03.991Z,36.70
2017-11-09T12:59:31.418Z,29.27
2017-11-09T13:01:58.837Z,32.00
2017-11-09T13:04:26.282Z,33.60
2017-11-09T13:06:53.722Z,34.33
2017-11-09T13:09:21.163Z,43.83
2017-11-09T13:11:48.591Z,41.97
2017-11-09T13:14:16.024Z,38.17
2017-11-09T13:16:43.445Z,47.80
2017-11-09T13:19:10.927Z,49.33
2017-11-09T13:21:38.357Z,48.17
2017-11-09T13:24:05.803Z,54.70
2017-11-09T13:26:33.251Z,48.13
2017-11-09T13:29:00.677Z,57.35
2017-11-09T13:31:28.102Z,76.93
2017-11-09T13:33:55.558Z,54.35
2017-11-09T13:36:22.985Z,60.58
2017-11-09T13:38:50.423Z,54.45
2017-11-09T13:41:17.881Z,48.97
2017-11-09T13:43:45.317Z,46.08
2017-11-09T13:46:12.749Z,49.93
2017-11-09T13:48:40.189Z,55.92
2017-11-09T13:51:07.613Z,62.93
2017-11-09T13:53:35.046Z,50.47
2017-11-09T13:56:02.521Z,46.15
2017-11-09T13:58:29.945Z,46.85
2017-11-09T14:00:57.387Z,49.38
2017-11-09T14:03:24.832Z,54.70
2017-11-09T14:05:52.276Z,47.20
2017-11-09T14:08:19.710Z,43.55
2017-11-09T14:10:47.150Z,43.43
2017-11-09T14:13:14.578Z,39.07
2017-11-09T14:15:41.997Z,43.03
2017-11-09T14:18:09.433Z,43.90
2017-11-09T14:20:36.853Z,39.97
2017-11-09T14:23:04.277Z,40.40
2017-11-09T14:25:31.730Z,43.97
2017-11-09T14:27:59.161Z,44.90
2017-11-09T14:30:26.582Z,46.23
2017-11-09T14:32:54.033Z,37.80
2017-11-09T14:35:21.477Z,34.50
2017-11-09T14:37:48.914Z,37.65
2017-11-09T14:40:16.366Z,35.90
2017-11-09T14:42:43.789Z,36.00
2017-11-09T14:45:11.226Z,31.00
2017-11-09T14:47:38.667Z,31.90
2017-11-09T14:50:06.114Z,42.95
2017-11-09T14:52:33.539Z,34.30
2017-11-09T14:55:00.970Z,33.80
2017-11-09T14:57:28.422Z,33.60
2017-11-09T14:59:55.859Z,39.60
2017-11-09T15:02:23.289Z,36.58
2017-11-09T15:04:50.732Z,36.10
2017-11-09T15:07:18.158Z,35.10
2017-11-09T15:09:45.601Z,44.40
2017-11-09T15:12:13.048Z,41.72
2017-11-09T15:14:40.502Z,39.58
2017-11-09T15:17:07.945Z,48.27
2017-11-09T15:19:35.477Z,38.93
2017-11-09T15:22:02.918Z,39.37
2017-11-09T15:24:30.450Z,37.30
2017-11-09T15:26:57.968Z,39.40
2017-11-09T15:29:25.467Z,41.85
2017-11-09T15:31:52.918Z,36.50
2017-11-09T15:34:20.379Z,49.60
2017-11-09T15:36:47.815Z,46.73
2017-11-09T15:39:15.249Z,44.53
2017-11-09T15:41:42.730Z,42.70
2017-11-09T15:44:10.153Z,47.53
2017-11-09T15:46:37.650Z,62.47
2017-11-09T15:49:05.082Z,69.32
2017-11-09T15:51:32.518Z,63.97
2017-11-09T15:53:59.967Z,59.03
2017-11-09T15:56:27.397Z,56.03
2017-11-09T15:58:54.859Z,55.50
2017-11-09T16:01:22.302Z,62.22
2017-11-09T16:03:49.730Z,61.05
2017-11-09T16:06:17.228Z,54.08
2017-11-09T16:08:44.661Z,56.00
2017-11-09T16:11:12.102Z,50.38
2017-11-09T16:13:39.549Z,53.60
2017-11-09T16:16:06.980Z,56.85
2017-11-09T16:18:38.332Z,55.47
2017-11-09T16:21:05.796Z,49.25
2017-11-09T16:23:33.247Z,51.42
2017-11-09T16:26:00.686Z,51.75
2017-11-09T16:28:28.147Z,49.00
2017-11-09T16:30:55.576Z,58.35
2017-11-09T16:33:23.077Z,49.97
2017-11-09T16:35:50.528Z,49.30
2017-11-09T16:38:17.962Z,46.35
2017-11-09T16:40:45.389Z,47.78
2017-11-09T16:43:12.843Z,48.10
2017-11-09T16:45:40.277Z,51.28
2017-11-09T16:48:07.710Z,42.78
2017-11-09T16:50:35.162Z,53.72
2017-11-09T16:53:10.093Z,54.90
2017-11-09T16:55:43.935Z,48.63
2017-11-09T16:58:11.375Z,48.10
2017-11-09T17:00:38.801Z,52.00
2017-11-09T17:03:06.243Z,45.87
2017-11-09T17:05:33.728Z,42.90
2017-11-09T17:08:01.158Z,45.65
2017-11-09T17:10:28.680Z,47.80
2017-11-09T17:12:56.097Z,48.20
2017-11-09T17:15:23.517Z,49.87
2017-11-09T17:17:50.976Z,45.65
2017-11-09T17:20:18.407Z,45.20
2017-11-09T17:22:45.836Z,48.47
2017-11-09T17:25:13.273Z,44.70
2017-11-09T17:27:40.700Z,42.13
2017-11-09T17:30:08.126Z,40.40
2017-11-09T17:32:35.592Z,49.67
2017-11-09T17:35:03.521Z,46.50
2017-11-09T17:37:30.958Z,48.28
2017-11-09T17:39:58.402Z,44.23
2017-11-09T17:42:26.776Z,51.90
2017-11-09T17:44:55.334Z,48.33
2017-11-09T17:47:22.768Z,56.43
2017-11-09T17:49:50.206Z,49.30
2017-11-09T17:52:17.661Z,46.30
2017-11-09T17:54:45.111Z,57.00
2017-11-09T17:57:12.550Z,46.05
2017-11-09T17:59:41.704Z,51.10
2017-11-09T18:02:09.150Z,47.70
2017-11-09T18:04:36.620Z,57.00
2017-11-09T18:07:04.040Z,45.30
2017-11-09T18:09:31.490Z,46.87
2017-11-09T18:11:58.939Z,43.33
2017-11-09T18:14:26.395Z,44.10
2017-11-09T18:16:53.846Z,42.60
2017-11-09T18:19:21.289Z,43.83
2017-11-09T18:21:48.765Z,51.00
2017-11-09T18:24:17.121Z,47.30
2017-11-09T18:26:44.563Z,48.20
2017-11-09T18:29:12.014Z,39.30
2017-11-09T18:31:42.382Z,46.50
2017-11-09T18:34:09.859Z,42.83
2017-11-09T18:36:37.306Z,49.88
2017-11-09T18:39:04.742Z,57.53
2017-11-09T18:41:32.205Z,47.05
2017-11-09T18:43:59.634Z,45.33
2017-11-09T18:46:27.064Z,36.60
2017-11-09T18:48:54.514Z,37.42
2017-11-09T18:51:21.966Z,39.92
2017-11-09T18:53:49.404Z,43.10
2017-11-09T18:56:16.873Z,39.80
2017-11-09T18:58:46.095Z,37.40
2017-11-09T19:01:13.565Z,36.40
2017-11-09T19:03:41.017Z,41.97
2017-11-09T19:06:08.526Z,39.40
2017-11-09T19:08:35.982Z,45.13
2017-11-09T19:11:03.489Z,34.47
2017-11-09T19:13:30.926Z,43.90
2017-11-09T19:15:58.391Z,47.77
2017-11-09T19:18:25.837Z,43.97
2017-11-09T19:20:58.095Z,44.50
2017-11-09T19:23:26.446Z,35.77
2017-11-09T19:26:02.369Z,38.50
2017-11-09T19:28:30.230Z,39.87
2017-11-09T19:30:58.725Z,39.23
2017-11-09T19:33:26.962Z,47.88
2017-11-09T19:35:55.371Z,43.27
2017-11-09T19:38:24.607Z,39.67
2017-11-09T19:40:53.002Z,40.20
2017-11-09T19:43:21.508Z,39.50
2017-11-09T19:45:49.860Z,36.75
2017-11-09T19:48:18.208Z,50.80
2017-11-09T19:50:46.657Z,40.03
2017-11-09T19:53:15.274Z,44.97
2017-11-09T19:55:46.546Z,41.30
2017-11-09T19:58:14.935Z,36.33
2017-11-09T20:00:49.855Z,51.53
2017-11-09T20:03:18.458Z,37.95
2017-11-09T20:05:46.954Z,46.43
2017-11-09T20:08:15.321Z,55.03
2017-11-09T20:10:46.787Z,44.22
2017-11-09T20:13:20.788Z,41.60
2017-11-09T20:15:49.179Z,35.08
2017-11-09T20:18:18.975Z,47.00
2017-11-09T20:20:55.724Z,49.08
2017-11-09T20:23:27.771Z,45.97
2017-11-09T20:26:02.137Z,55.15
2017-11-09T20:28:31.719Z,56.78
2017-11-09T20:31:00.099Z,52.75
2017-11-09T20:33:33.335Z,46.17
2017-11-09T20:36:07.285Z,49.15
2017-11-09T20:38:35.690Z,58.35
2017-11-09T20:41:04.194Z,49.83
2017-11-09T20:43:32.951Z,42.80
2017-11-09T20:46:01.620Z,44.47
2017-11-09T20:48:30.776Z,50.40
2017-11-09T20:50:59.959Z,34.93
2017-11-09T20:53:32.328Z,48.17
2017-11-09T20:56:00.698Z,34.70
2017-11-09T20:58:29.063Z,37.40
2017-11-09T21:00:57.519Z,41.80
2017-11-09T21:03:25.830Z,40.23
2017-11-09T21:05:54.307Z,35.30
2017-11-09T21:08:22.733Z,38.50
2017-11-09T21:10:58.134Z,32.17
2017-11-09T21:13:26.262Z,37.75
2017-11-09T21:15:54.169Z,32.57
2017-11-09T21:18:21.800Z,32.00
2017-11-09T21:20:49.324Z,31.17
2017-11-09T21:23:16.826Z,29.73
2017-11-09T21:25:44.411Z,35.85
2017-11-09T21:28:11.935Z,38.60
2017-11-09T21:30:39.547Z,40.83
2017-11-09T21:33:07.037Z,35.17
2017-11-09T21:35:34.531Z,31.43
2017-11-09T21:38:01.994Z,38.73
2017-11-09T21:40:29.422Z,48.03
2017-11-09T21:42:56.921Z,31.47
2017-11-09T21:45:24.340Z,28.27
2017-11-09T21:47:51.767Z,29.10
2017-11-09T21:50:19.209Z,33.97
2017-11-09T21:52:46.634Z,28.90
2017-11-09T21:55:14.064Z,28.40
2017-11-09T21:57:41.502Z,25.50
2017-11-09T22:00:08.929Z,32.70
2017-11-09T22:02:36.349Z,27.07
2017-11-09T22:05:03.808Z,27.10
2017-11-09T22:07:31.225Z,27.47
2017-11-09T22:09:58.646Z,29.40
2017-11-09T22:12:27.866Z,30.67
2017-11-09T22:14:55.310Z,33.78
2017-11-09T22:17:22.739Z,26.87
2017-11-09T22:19:50.173Z,28.15
2017-11-09T22:22:17.613Z,26.20
2017-11-09T22:24:45.044Z,31.47
2017-11-09T22:27:12.478Z,27.62
2017-11-09T22:29:39.925Z,27.15
2017-11-09T22:32:07.357Z,27.90
2017-11-09T22:34:34.791Z,29.85
2017-11-09T22:37:02.230Z,25.77
2017-11-09T22:39:29.690Z,31.05
2017-11-09T22:41:57.122Z,31.58
2017-11-09T22:44:24.556Z,27.90
2017-11-09T22:46:51.989Z,25.70
2017-11-09T22:49:19.410Z,24.40
2017-11-09T22:51:46.861Z,26.67
2017-11-09T22:54:14.246Z,28.50
2017-11-09T22:56:41.710Z,23.23
2017-11-09T22:59:09.169Z,26.77
2017-11-09T23:01:36.597Z,26.08
2017-11-09T23:04:04.017Z,30.10
2017-11-09T23:06:31.455Z,22.30
2017-11-09T23:08:58.888Z,23.67
2017-11-09T23:11:26.325Z,25.92
2017-11-09T23:13:53.771Z,36.53
2017-11-09T23:16:21.210Z,37.60
2017-11-09T23:18:48.646Z,45.70
2017-11-09T23:21:16.095Z,45.00
2017-11-09T23:23:43.532Z,52.97
2017-11-09T23:26:10.963Z,54.10
2017-11-09T23:28:38.413Z,55.78
2017-11-09T23:31:05.856Z,58.60
2017-11-09T23:33:33.302Z,52.20
2017-11-09T23:36:00.753Z,55.38
2017-11-09T23:38:28.202Z,66.18
2017-11-09T23:40:55.640Z,59.67
2017-11-09T23:43:23.090Z,63.58
2017-11-09T23:45:50.530Z,66.70
2017-11-09T23:48:22.781Z,65.72
2017-11-09T23:50:50.230Z,57.80
2017-11-09T23:53:17.666Z,60.80
2017-11-09T23:55:45.123Z,60.33
2017-11-09T23:58:12.710Z,67.05
